Weather at Debrecen International Airport

Public forecast

Using degrees Celsius for public forecast. Weather courtesy of forecast.io.

Current aviation weather report (METAR) for Debrecen International Airport

Retrieved 2020/09/19 14:15 UTC (11 minutes ago):

LHDC 191415Z AUTO VRB03KT CAVOK 23/05 Q1021

Aviation forecast (TAF) for Debrecen International Airport

Forecast is more than 12 hours old.

Retrieved 2019/12/01 21:12 UTC (10 months ago):

TAF TAF LHDC 010000Z 3021/0106 CNL